Time;durP1;ratioP1;P1;durP2;ratioP2;P2;SDS_P1;SDS_P2;PMS_P1;PMS_P2;Temp;Humidity;BMP_temperature;BMP_pressure;BME280_temperature;BME280_humidity;BME280_pressure;Samples;Min_cycle;Max_cycle;Signal;HPM_P1;HPM_P2
2023/05/10 00:01:20;;;;;;;;;;;21.50;37.10;;;;;;5130436;27;19934;-53
2023/05/10 00:03:45;;;;;;;;;;;21.40;36.90;;;;;;5131696;27;19920;-54
2023/05/10 00:06:11;;;;;;;;;;;21.40;37.00;;;;;;5089573;27;19919;-53
2023/05/10 00:08:37;;;;;;;;;;;21.40;37.00;;;;;;5093931;28;20007;-54
2023/05/10 00:11:02;;;;;;;;;;;21.40;37.00;;;;;;5120647;27;20056;-53
2023/05/10 00:13:28;;;;;;;;;;;21.40;36.90;;;;;;5132349;27;19952;-53
2023/05/10 00:15:53;;;;;;;;;;;21.40;37.10;;;;;;5133257;27;20351;-53
2023/05/10 00:18:19;;;;;;;;;;;21.40;37.20;;;;;;5099438;27;20052;-53
2023/05/10 00:20:45;;;;;;;;;;;21.30;37.10;;;;;;5129906;27;19926;-54
2023/05/10 00:23:11;;;;;;;;;;;21.30;37.30;;;;;;5109480;28;20313;-53
2023/05/10 00:25:37;;;;;;;;;;;21.30;37.20;;;;;;5129593;28;19926;-54
2023/05/10 00:28:02;;;;;;;;;;;21.30;37.40;;;;;;5128865;28;20359;-54
2023/05/10 00:30:27;;;;;;;;;;;21.30;37.50;;;;;;5129616;27;20024;-54
2023/05/10 00:32:53;;;;;;;;;;;21.30;37.20;;;;;;5131847;28;20006;-54
2023/05/10 00:35:18;;;;;;;;;;;21.30;37.30;;;;;;5130173;27;20469;-54
2023/05/10 00:37:44;;;;;;;;;;;21.30;37.50;;;;;;5127315;28;20013;-54
2023/05/10 00:40:10;;;;;;;;;;;21.30;38.20;;;;;;5110271;28;20395;-54
2023/05/10 00:42:35;;;;;;;;;;;21.30;37.30;;;;;;5113403;28;19919;-55
2023/05/10 00:45:01;;;;;;;;;;;21.30;37.40;;;;;;5130747;28;20279;-54
2023/05/10 00:47:26;;;;;;;;;;;21.30;37.50;;;;;;5131808;28;20328;-55
2023/05/10 00:49:52;;;;;;;;;;;21.30;37.60;;;;;;5132001;28;19907;-55
2023/05/10 00:52:17;;;;;;;;;;;21.30;37.60;;;;;;5131342;28;20343;-54
2023/05/10 00:54:43;;;;;;;;;;;21.30;37.70;;;;;;5130204;28;19952;-54
2023/05/10 00:57:09;;;;;;;;;;;21.30;37.50;;;;;;5131133;28;19956;-54
2023/05/10 00:59:34;;;;;;;;;;;21.30;37.70;;;;;;5112362;28;20002;-54
2023/05/10 01:02:00;;;;;;;;;;;21.20;37.70;;;;;;5130445;28;19922;-55
2023/05/10 01:04:25;;;;;;;;;;;21.20;37.70;;;;;;5130560;28;19927;-54
2023/05/10 01:06:51;;;;;;;;;;;21.20;37.70;;;;;;5131254;28;19912;-54
2023/05/10 01:09:17;;;;;;;;;;;21.20;37.80;;;;;;5110295;28;19915;-54
2023/05/10 01:11:42;;;;;;;;;;;21.20;37.80;;;;;;5113268;28;20287;-55
2023/05/10 01:14:07;;;;;;;;;;;21.20;37.90;;;;;;5128940;28;19967;-54
2023/05/10 01:16:40;;;;;;;;;;;21.20;37.80;;;;;;5112859;28;19958;-55
2023/05/10 01:19:26;;;;;;;;;;;21.20;37.80;;;;;;5129741;28;20053;-54
2023/05/10 01:22:06;;;;;;;;;;;21.30;38.00;;;;;;5128896;28;19962;-54
2023/05/10 01:24:37;;;;;;;;;;;21.40;37.80;;;;;;5111958;28;19916;-54
2023/05/10 01:27:18;;;;;;;;;;;21.40;37.80;;;;;;5131071;28;20264;-54
2023/05/10 01:29:47;;;;;;;;;;;21.40;37.70;;;;;;5128847;27;19924;-54
2023/05/10 01:32:16;;;;;;;;;;;21.40;37.70;;;;;;5111605;27;20018;-54
2023/05/10 01:34:47;;;;;;;;;;;21.50;37.60;;;;;;5133084;27;20272;-54
2023/05/10 01:37:21;;;;;;;;;;;21.50;37.40;;;;;;5116153;27;19956;-55
2023/05/10 01:39:48;;;;;;;;;;;21.60;37.40;;;;;;5103969;27;19923;-54
2023/05/10 01:42:17;;;;;;;;;;;21.60;37.30;;;;;;5131611;27;19937;-54
2023/05/10 01:44:46;;;;;;;;;;;21.60;37.30;;;;;;5114371;27;20274;-55
2023/05/10 01:47:15;;;;;;;;;;;21.70;37.40;;;;;;5122102;27;20053;-55
2023/05/10 01:49:46;;;;;;;;;;;21.70;37.20;;;;;;5115586;27;19923;-54
2023/05/10 01:52:12;;;;;;;;;;;21.70;37.20;;;;;;5100118;28;20341;-54
2023/05/10 01:54:48;;;;;;;;;;;21.70;37.20;;;;;;5113251;27;20479;-55
2023/05/10 01:57:13;;;;;;;;;;;21.80;37.20;;;;;;5113964;27;20364;-55
2023/05/10 01:59:40;;;;;;;;;;;21.80;37.20;;;;;;5112899;27;19966;-54
2023/05/10 02:02:06;;;;;;;;;;;21.90;37.20;;;;;;5132318;27;19915;-55
2023/05/10 02:04:31;;;;;;;;;;;21.80;37.10;;;;;;5115979;27;19971;-54
2023/05/10 02:06:57;;;;;;;;;;;21.80;37.10;;;;;;5134739;27;19911;-54
2023/05/10 02:09:22;;;;;;;;;;;21.80;37.20;;;;;;5127468;27;19912;-54
2023/05/10 02:11:48;;;;;;;;;;;21.80;37.10;;;;;;5131798;27;19947;-54
2023/05/10 02:14:13;;;;;;;;;;;21.80;37.20;;;;;;5133630;27;19958;-54
2023/05/10 02:16:38;;;;;;;;;;;21.80;37.20;;;;;;5115512;27;19911;-54
2023/05/10 02:19:04;;;;;;;;;;;21.80;37.20;;;;;;5131110;27;19911;-54
2023/05/10 02:21:30;;;;;;;;;;;21.80;37.20;;;;;;5117137;27;19991;-54
2023/05/10 02:23:56;;;;;;;;;;;21.90;37.30;;;;;;5131342;27;20010;-54
2023/05/10 02:26:21;;;;;;;;;;;21.80;37.20;;;;;;5133433;27;19958;-54
2023/05/10 02:28:47;;;;;;;;;;;21.80;37.30;;;;;;5113899;27;20339;-54
2023/05/10 02:31:12;;;;;;;;;;;21.80;37.30;;;;;;5115207;27;19964;-54
2023/05/10 02:33:38;;;;;;;;;;;21.80;37.40;;;;;;5131128;27;19919;-54
2023/05/10 02:36:04;;;;;;;;;;;21.80;37.40;;;;;;5134965;27;20363;-53
2023/05/10 02:38:29;;;;;;;;;;;21.80;37.40;;;;;;5130177;27;19911;-54
2023/05/10 02:40:55;;;;;;;;;;;21.80;37.40;;;;;;5132351;27;19930;-55
2023/05/10 02:43:20;;;;;;;;;;;21.80;37.40;;;;;;5131391;27;19912;-54
2023/05/10 02:45:46;;;;;;;;;;;21.80;37.50;;;;;;5132225;27;19942;-54
2023/05/10 02:48:12;;;;;;;;;;;21.70;37.40;;;;;;5133368;27;19964;-54
2023/05/10 02:50:37;;;;;;;;;;;21.70;37.50;;;;;;5128665;27;20397;-54
2023/05/10 02:53:15;;;;;;;;;;;21.70;37.50;;;;;;5127692;27;20352;-54
2023/05/10 02:55:41;;;;;;;;;;;21.70;37.50;;;;;;5130919;27;19911;-54
2023/05/10 02:58:06;;;;;;;;;;;21.70;37.50;;;;;;5131633;27;19991;-55
2023/05/10 03:00:32;;;;;;;;;;;21.70;37.50;;;;;;5126177;27;19990;-54
2023/05/10 03:02:57;;;;;;;;;;;21.70;37.60;;;;;;5132292;27;19912;-54
2023/05/10 03:05:23;;;;;;;;;;;21.70;37.60;;;;;;5127556;27;20178;-54
2023/05/10 03:07:48;;;;;;;;;;;21.70;37.60;;;;;;5113725;28;20035;-54
2023/05/10 03:10:14;;;;;;;;;;;21.70;37.70;;;;;;5105467;27;19968;-54
2023/05/10 03:12:58;;;;;;;;;;;21.60;37.60;;;;;;5132428;27;19907;-54
2023/05/10 03:15:26;;;;;;;;;;;21.60;37.60;;;;;;5129314;27;20003;-54
2023/05/10 03:17:55;;;;;;;;;;;21.60;37.60;;;;;;5131261;27;19922;-54
2023/05/10 03:20:31;;;;;;;;;;;21.60;37.70;;;;;;5132703;27;20002;-54
2023/05/10 03:23:01;;;;;;;;;;;21.60;37.70;;;;;;5114580;27;19915;-54
2023/05/10 03:25:26;;;;;;;;;;;21.60;37.70;;;;;;5128440;27;19919;-54
2023/05/10 03:27:52;;;;;;;;;;;21.60;37.70;;;;;;5130852;27;20420;-54
2023/05/10 03:30:17;;;;;;;;;;;21.60;37.70;;;;;;5106830;27;19923;-54
2023/05/10 03:32:43;;;;;;;;;;;21.60;37.70;;;;;;5125308;27;19911;-53
2023/05/10 03:35:08;;;;;;;;;;;21.60;37.80;;;;;;5130393;27;19911;-54
2023/05/10 03:37:34;;;;;;;;;;;21.60;37.70;;;;;;5129651;27;19916;-54
2023/05/10 03:40:00;;;;;;;;;;;21.60;37.80;;;;;;5107675;28;20262;-54
2023/05/10 03:42:25;;;;;;;;;;;21.60;37.70;;;;;;5107093;28;19920;-53
2023/05/10 03:44:50;;;;;;;;;;;21.60;37.80;;;;;;5111688;28;19920;-54
2023/05/10 03:47:16;;;;;;;;;;;21.50;37.80;;;;;;5105105;28;19916;-54
2023/05/10 03:49:41;;;;;;;;;;;21.60;37.90;;;;;;5113190;28;20260;-54
2023/05/10 03:52:07;;;;;;;;;;;21.60;37.90;;;;;;5108733;28;19971;-54
2023/05/10 03:54:32;;;;;;;;;;;21.60;37.90;;;;;;5109348;28;19954;-54
2023/05/10 03:56:58;;;;;;;;;;;21.60;37.90;;;;;;5112009;28;19919;-54
2023/05/10 03:59:23;;;;;;;;;;;21.60;38.00;;;;;;5110273;28;19911;-55
2023/05/10 04:01:48;;;;;;;;;;;21.50;37.90;;;;;;5109101;28;19983;-54
2023/05/10 04:04:14;;;;;;;;;;;21.50;37.90;;;;;;5110664;28;19916;-54
2023/05/10 04:06:39;;;;;;;;;;;21.50;37.90;;;;;;5111211;28;19912;-54
2023/05/10 04:09:05;;;;;;;;;;;21.50;37.90;;;;;;5110632;28;19930;-54
2023/05/10 04:11:30;;;;;;;;;;;21.50;38.00;;;;;;5108856;28;19916;-54
2023/05/10 04:13:56;;;;;;;;;;;21.50;38.00;;;;;;5110878;28;20492;-54
2023/05/10 04:16:21;;;;;;;;;;;21.50;38.00;;;;;;5110226;27;19923;-54
2023/05/10 04:18:47;;;;;;;;;;;21.50;38.00;;;;;;5110152;28;19912;-54
2023/05/10 04:21:13;;;;;;;;;;;21.50;38.70;;;;;;5109722;28;20019;-56
2023/05/10 04:23:38;;;;;;;;;;;21.50;38.10;;;;;;5111766;28;19958;-54
2023/05/10 04:26:04;;;;;;;;;;;21.50;38.10;;;;;;5106174;28;19919;-54
2023/05/10 04:28:29;;;;;;;;;;;21.50;38.10;;;;;;5107575;28;20421;-54
2023/05/10 04:31:08;;;;;;;;;;;21.50;38.20;;;;;;5109118;28;19915;-54
2023/05/10 04:33:33;;;;;;;;;;;21.50;38.10;;;;;;5108655;28;19998;-54
2023/05/10 04:35:59;;;;;;;;;;;21.50;38.10;;;;;;5108242;28;20057;-54
2023/05/10 04:38:24;;;;;;;;;;;21.50;38.20;;;;;;5110294;28;20304;-54
2023/05/10 04:40:50;;;;;;;;;;;21.50;38.20;;;;;;5106664;28;20376;-54
2023/05/10 04:43:16;;;;;;;;;;;21.50;38.20;;;;;;5111042;28;19922;-54
2023/05/10 04:45:41;;;;;;;;;;;21.50;38.20;;;;;;5108781;28;20428;-54
2023/05/10 04:48:07;;;;;;;;;;;21.50;38.90;;;;;;5110801;28;20297;-54
2023/05/10 04:50:32;;;;;;;;;;;21.50;38.30;;;;;;5106987;28;19915;-53
2023/05/10 04:52:58;;;;;;;;;;;21.50;38.30;;;;;;5111390;28;19908;-54
2023/05/10 04:55:23;;;;;;;;;;;21.50;38.30;;;;;;5106927;28;19918;-54
2023/05/10 04:57:49;;;;;;;;;;;21.50;38.30;;;;;;5109455;28;19919;-54
2023/05/10 05:00:14;;;;;;;;;;;21.50;38.30;;;;;;5108586;28;19918;-54
2023/05/10 05:02:45;;;;;;;;;;;21.50;38.30;;;;;;5109129;28;19919;-54
2023/05/10 05:05:10;;;;;;;;;;;21.50;38.40;;;;;;5107669;28;19915;-54
2023/05/10 05:07:36;;;;;;;;;;;21.50;38.40;;;;;;5114075;28;19995;-54
2023/05/10 05:10:01;;;;;;;;;;;21.50;38.30;;;;;;5111922;28;19916;-54
2023/05/10 05:12:26;;;;;;;;;;;21.50;38.30;;;;;;5114075;28;19980;-54
2023/05/10 05:14:52;;;;;;;;;;;21.50;38.30;;;;;;5114600;28;19919;-54
2023/05/10 05:17:17;;;;;;;;;;;21.50;38.40;;;;;;5112335;28;19919;-54
2023/05/10 05:19:43;;;;;;;;;;;21.50;38.40;;;;;;5111346;28;19912;-54
2023/05/10 05:22:08;;;;;;;;;;;21.50;39.10;;;;;;5110654;28;19966;-54
2023/05/10 05:24:37;;;;;;;;;;;21.50;38.50;;;;;;5111554;28;19919;-54
2023/05/10 05:27:03;;;;;;;;;;;21.50;38.50;;;;;;5114906;28;19912;-54
2023/05/10 05:29:29;;;;;;;;;;;21.40;38.40;;;;;;5112372;28;19919;-54
2023/05/10 05:31:54;;;;;;;;;;;21.40;38.40;;;;;;5098146;28;19912;-54
2023/05/10 05:34:21;;;;;;;;;;;21.40;38.40;;;;;;5103232;28;19919;-53
2023/05/10 05:36:47;;;;;;;;;;;21.40;38.40;;;;;;5104878;28;19920;-54
2023/05/10 05:39:12;;;;;;;;;;;21.40;38.40;;;;;;5114463;28;19915;-54
2023/05/10 05:41:37;;;;;;;;;;;21.50;38.50;;;;;;5131481;27;20392;-54
2023/05/10 05:44:03;;;;;;;;;;;21.40;38.40;;;;;;5133243;27;20375;-54
2023/05/10 05:46:28;;;;;;;;;;;21.40;38.50;;;;;;5116052;27;20279;-54
2023/05/10 05:48:54;;;;;;;;;;;21.40;38.40;;;;;;5128333;27;19912;-54
2023/05/10 05:51:20;;;;;;;;;;;21.40;38.50;;;;;;5129784;27;19957;-54
2023/05/10 05:53:45;;;;;;;;;;;21.50;38.60;;;;;;5132076;27;19918;-54
2023/05/10 05:56:10;;;;;;;;;;;21.50;38.50;;;;;;5133082;27;20342;-55
2023/05/10 05:58:36;;;;;;;;;;;21.40;38.50;;;;;;5123786;27;19954;-54
2023/05/10 06:01:01;;;;;;;;;;;21.40;38.60;;;;;;5128381;27;19916;-54
2023/05/10 06:03:27;;;;;;;;;;;21.40;38.50;;;;;;5133338;27;19912;-54
2023/05/10 06:05:52;;;;;;;;;;;21.50;39.20;;;;;;5130894;27;19916;-53
2023/05/10 06:08:18;;;;;;;;;;;21.50;38.50;;;;;;5134070;27;19963;-53
2023/05/10 06:10:44;;;;;;;;;;;21.40;38.60;;;;;;5115045;27;19962;-53
2023/05/10 06:13:09;;;;;;;;;;;21.40;38.60;;;;;;5131447;27;19912;-54
2023/05/10 06:15:35;;;;;;;;;;;21.40;38.60;;;;;;5115769;27;20386;-55
2023/05/10 06:18:00;;;;;;;;;;;21.40;38.60;;;;;;5129072;27;20394;-53
2023/05/10 06:20:26;;;;;;;;;;;21.40;38.60;;;;;;5129841;27;20359;-53
2023/05/10 06:22:51;;;;;;;;;;;21.40;38.60;;;;;;5134523;27;20275;-54
2023/05/10 06:25:18;;;;;;;;;;;21.40;38.60;;;;;;5128980;27;19923;-54
2023/05/10 06:27:43;;;;;;;;;;;21.40;38.70;;;;;;5128114;27;20086;-54
2023/05/10 06:30:09;;;;;;;;;;;21.40;38.70;;;;;;5134421;27;19989;-54
2023/05/10 06:32:34;;;;;;;;;;;21.40;38.80;;;;;;5135034;27;19957;-55
2023/05/10 06:35:00;;;;;;;;;;;21.40;38.70;;;;;;5130276;27;19911;-54
2023/05/10 06:37:25;;;;;;;;;;;21.40;38.80;;;;;;5131190;27;20367;-54
2023/05/10 06:39:51;;;;;;;;;;;21.40;38.80;;;;;;5134611;27;19926;-54
2023/05/10 06:42:16;;;;;;;;;;;21.40;39.00;;;;;;5133832;27;19915;-54
2023/05/10 06:44:43;;;;;;;;;;;21.40;39.20;;;;;;5130633;27;19915;-54
2023/05/10 06:47:08;;;;;;;;;;;21.40;39.00;;;;;;5130669;27;19964;-55
2023/05/10 06:49:34;;;;;;;;;;;21.40;39.20;;;;;;5132851;27;19915;-54
2023/05/10 06:51:59;;;;;;;;;;;21.40;39.00;;;;;;5134144;27;20368;-54
2023/05/10 06:54:25;;;;;;;;;;;21.40;39.70;;;;;;5130063;27;20347;-54
2023/05/10 06:56:50;;;;;;;;;;;21.40;39.00;;;;;;5133669;27;19912;-54
2023/05/10 06:59:16;;;;;;;;;;;21.40;39.00;;;;;;5131320;27;19919;-54
2023/05/10 07:01:42;;;;;;;;;;;21.40;39.10;;;;;;5108970;27;19916;-54
2023/05/10 07:04:07;;;;;;;;;;;21.40;39.20;;;;;;5115733;27;19924;-54
2023/05/10 07:06:33;;;;;;;;;;;21.40;39.20;;;;;;5134306;27;19936;-55
2023/05/10 07:08:59;;;;;;;;;;;21.40;39.30;;;;;;5114386;27;19912;-54
2023/05/10 07:11:24;;;;;;;;;;;21.40;39.40;;;;;;5115412;27;20249;-55
2023/05/10 07:13:50;;;;;;;;;;;21.30;39.50;;;;;;5121423;27;20252;-54
2023/05/10 07:16:15;;;;;;;;;;;21.30;39.50;;;;;;5127123;27;19937;-55
2023/05/10 07:18:41;;;;;;;;;;;21.40;39.50;;;;;;5124956;27;19930;-55
2023/05/10 07:21:06;;;;;;;;;;;21.40;39.60;;;;;;5113689;27;20401;-54
2023/05/10 07:23:32;;;;;;;;;;;21.40;39.70;;;;;;5109664;27;19915;-55
2023/05/10 07:25:57;;;;;;;;;;;21.40;39.80;;;;;;5132926;27;20006;-55
2023/05/10 07:28:23;;;;;;;;;;;21.40;39.90;;;;;;5129524;27;19993;-55
2023/05/10 07:30:48;;;;;;;;;;;21.40;40.00;;;;;;5104914;27;19916;-55
2023/05/10 07:33:14;;;;;;;;;;;21.40;40.10;;;;;;5122085;27;19915;-54
2023/05/10 07:35:39;;;;;;;;;;;21.40;40.10;;;;;;5126425;27;19912;-55
2023/05/10 07:38:05;;;;;;;;;;;21.40;40.30;;;;;;5128162;27;20002;-55
2023/05/10 07:40:30;;;;;;;;;;;21.40;40.40;;;;;;5132663;27;19926;-54
2023/05/10 07:42:56;;;;;;;;;;;21.40;40.70;;;;;;5128875;27;19968;-53
2023/05/10 07:45:21;;;;;;;;;;;21.40;40.60;;;;;;5133125;27;20014;-54
2023/05/10 07:47:47;;;;;;;;;;;21.40;40.70;;;;;;5124397;27;19923;-55
2023/05/10 07:50:12;;;;;;;;;;;21.40;40.80;;;;;;5131849;27;19916;-53
2023/05/10 07:52:38;;;;;;;;;;;21.40;40.80;;;;;;5123113;27;19911;-54
2023/05/10 07:55:03;;;;;;;;;;;21.40;40.90;;;;;;5129094;27;19908;-54
2023/05/10 07:57:29;;;;;;;;;;;21.40;40.90;;;;;;5107954;27;19927;-55
2023/05/10 07:59:54;;;;;;;;;;;21.40;40.90;;;;;;5088876;27;19919;-55
2023/05/10 08:02:20;;;;;;;;;;;21.40;40.90;;;;;;5125790;27;19911;-55
2023/05/10 08:04:45;;;;;;;;;;;21.40;41.00;;;;;;5105877;28;20022;-55
2023/05/10 08:07:11;;;;;;;;;;;21.40;40.60;;;;;;5126747;27;19915;-55
2023/05/10 08:09:36;;;;;;;;;;;21.40;41.00;;;;;;5123667;27;19922;-55
2023/05/10 08:12:02;;;;;;;;;;;21.40;41.00;;;;;;5123698;28;19923;-55
2023/05/10 08:14:28;;;;;;;;;;;21.40;40.60;;;;;;5118265;27;19919;-54
2023/05/10 08:16:53;;;;;;;;;;;21.40;40.90;;;;;;5128446;27;19911;-55
2023/05/10 08:19:21;;;;;;;;;;;21.40;41.00;;;;;;5108095;28;20298;-55
2023/05/10 08:21:46;;;;;;;;;;;21.40;40.70;;;;;;5098958;28;20443;-55
2023/05/10 08:24:12;;;;;;;;;;;21.40;40.90;;;;;;5121385;27;20015;-55
2023/05/10 08:26:37;;;;;;;;;;;21.40;40.70;;;;;;5130005;28;19911;-55
2023/05/10 08:29:03;;;;;;;;;;;21.50;40.80;;;;;;5119976;28;20039;-55
2023/05/10 08:31:28;;;;;;;;;;;21.50;40.90;;;;;;5106043;28;19915;-55
2023/05/10 08:33:53;;;;;;;;;;;21.50;40.90;;;;;;5129047;28;19926;-56
2023/05/10 08:36:21;;;;;;;;;;;21.50;40.80;;;;;;5126549;28;20048;-55
2023/05/10 08:38:47;;;;;;;;;;;21.50;40.80;;;;;;5113306;27;19926;-55
2023/05/10 08:41:13;;;;;;;;;;;21.50;40.70;;;;;;5109688;27;19919;-55
2023/05/10 08:43:38;;;;;;;;;;;21.50;40.70;;;;;;5104545;27;20006;-55
2023/05/10 08:46:04;;;;;;;;;;;21.60;40.80;;;;;;5129275;27;19912;-55
2023/05/10 08:48:30;;;;;;;;;;;21.60;40.70;;;;;;5128411;27;19911;-55
2023/05/10 08:50:56;;;;;;;;;;;21.60;40.70;;;;;;5130112;27;19918;-55
2023/05/10 08:53:22;;;;;;;;;;;21.60;40.70;;;;;;5130654;27;19916;-55
2023/05/10 08:55:47;;;;;;;;;;;21.70;40.80;;;;;;5131084;27;20264;-56
2023/05/10 08:58:13;;;;;;;;;;;21.70;40.80;;;;;;5133421;27;19919;-55
2023/05/10 09:00:38;;;;;;;;;;;21.70;40.90;;;;;;5135227;27;19917;-56
2023/05/10 09:03:04;;;;;;;;;;;21.70;40.80;;;;;;5133909;27;19916;-55
2023/05/10 09:05:29;;;;;;;;;;;21.70;40.90;;;;;;5128970;27;19987;-56
2023/05/10 09:07:55;;;;;;;;;;;21.70;40.80;;;;;;5102301;27;20245;-55
2023/05/10 09:10:20;;;;;;;;;;;21.80;41.00;;;;;;5123494;27;20533;-55
2023/05/10 09:12:46;;;;;;;;;;;21.70;40.80;;;;;;5127690;27;20327;-56
2023/05/10 09:15:11;;;;;;;;;;;21.70;40.90;;;;;;5126303;27;20298;-56
2023/05/10 09:17:38;;;;;;;;;;;21.70;41.00;;;;;;5112474;27;20383;-55
2023/05/10 09:20:04;;;;;;;;;;;21.70;41.30;;;;;;5099841;27;19919;-55
2023/05/10 09:22:32;;;;;;;;;;;21.70;41.30;;;;;;5131745;27;19907;-56
2023/05/10 09:25:11;;;;;;;;;;;21.70;41.30;;;;;;5090997;27;19916;-56
2023/05/10 09:27:36;;;;;;;;;;;21.70;41.30;;;;;;5124310;27;19916;-55
2023/05/10 09:30:02;;;;;;;;;;;21.60;41.30;;;;;;5132954;27;19968;-56
2023/05/10 09:32:41;;;;;;;;;;;21.60;41.50;;;;;;5129640;27;20370;-55
2023/05/10 09:35:07;;;;;;;;;;;21.60;41.60;;;;;;5129871;27;20102;-56
2023/05/10 09:37:32;;;;;;;;;;;21.60;41.90;;;;;;5131488;27;20340;-56
2023/05/10 09:39:58;;;;;;;;;;;21.60;41.80;;;;;;5135181;27;19915;-56
2023/05/10 09:42:24;;;;;;;;;;;21.50;41.70;;;;;;5128775;27;20379;-56
2023/05/10 09:44:49;;;;;;;;;;;21.50;41.70;;;;;;5125145;27;20272;-56
2023/05/10 09:47:18;;;;;;;;;;;21.50;41.80;;;;;;5122971;27;19918;-55
2023/05/10 09:49:44;;;;;;;;;;;21.50;42.70;;;;;;5134926;27;19923;-55
2023/05/10 09:52:09;;;;;;;;;;;21.50;42.00;;;;;;5108052;27;19918;-56
2023/05/10 09:54:35;;;;;;;;;;;21.50;42.20;;;;;;5125533;27;20395;-56
2023/05/10 09:57:01;;;;;;;;;;;21.50;42.50;;;;;;5132563;27;19964;-56
2023/05/10 09:59:30;;;;;;;;;;;21.50;42.70;;;;;;5126418;27;19919;-56
2023/05/10 10:01:55;;;;;;;;;;;21.50;43.00;;;;;;5104562;27;19916;-56
2023/05/10 10:04:21;;;;;;;;;;;21.50;43.30;;;;;;5132499;27;19915;-55
2023/05/10 10:06:47;;;;;;;;;;;21.50;43.40;;;;;;5112687;27;19911;-56
2023/05/10 10:09:12;;;;;;;;;;;21.40;43.60;;;;;;5114976;27;19911;-56
2023/05/10 10:11:38;;;;;;;;;;;21.40;43.70;;;;;;5132297;27;20299;-55
2023/05/10 10:14:04;;;;;;;;;;;21.50;43.90;;;;;;5133392;27;19911;-55
2023/05/10 10:16:29;;;;;;;;;;;21.50;44.00;;;;;;5131973;27;19918;-55
2023/05/10 10:18:55;;;;;;;;;;;21.50;44.10;;;;;;5127816;27;19919;-55
2023/05/10 10:21:20;;;;;;;;;;;21.50;44.00;;;;;;5133225;27;19911;-55
2023/05/10 10:23:46;;;;;;;;;;;21.50;44.10;;;;;;5133661;27;19912;-55
2023/05/10 10:26:11;;;;;;;;;;;21.50;44.00;;;;;;5129906;27;19919;-54
2023/05/10 10:28:51;;;;;;;;;;;21.60;44.00;;;;;;5131709;27;19911;-54
2023/05/10 10:31:39;;;;;;;;;;;21.60;44.10;;;;;;5110184;27;19919;-55
2023/05/10 10:34:04;;;;;;;;;;;21.60;44.10;;;;;;5111677;27;19912;-55
2023/05/10 10:36:30;;;;;;;;;;;21.60;44.20;;;;;;5118736;27;19934;-55
2023/05/10 10:38:59;;;;;;;;;;;21.60;44.20;;;;;;5124911;27;19918;-55
2023/05/10 10:41:34;;;;;;;;;;;21.60;44.10;;;;;;5122556;27;19919;-55
2023/05/10 10:44:18;;;;;;;;;;;21.80;44.40;;;;;;5125901;27;20355;-55
2023/05/10 10:47:03;;;;;;;;;;;22.30;43.80;;;;;;5123355;27;19919;-55
2023/05/10 10:49:32;;;;;;;;;;;22.60;43.10;;;;;;5125241;27;19951;-55
2023/05/10 10:52:14;;;;;;;;;;;22.90;42.30;;;;;;5130406;27;20256;-55
2023/05/10 10:54:39;;;;;;;;;;;23.20;41.90;;;;;;5123084;27;19911;-55
2023/05/10 10:57:12;;;;;;;;;;;23.40;41.50;;;;;;5126041;27;20359;-55
2023/05/10 10:59:42;;;;;;;;;;;23.40;41.60;;;;;;5130470;27;19928;-56
2023/05/10 11:02:07;;;;;;;;;;;23.40;41.80;;;;;;5125185;27;19915;-56
2023/05/10 11:04:40;;;;;;;;;;;23.40;41.80;;;;;;5133224;27;19971;-55
2023/05/10 11:07:19;;;;;;;;;;;23.50;41.70;;;;;;5109767;27;20010;-54
2023/05/10 11:09:46;;;;;;;;;;;23.60;41.50;;;;;;5112284;27;19943;-55
2023/05/10 11:12:11;;;;;;;;;;;23.80;41.00;;;;;;5106642;27;19919;-55
2023/05/10 11:14:36;;;;;;;;;;;24.00;40.90;;;;;;5126937;27;20443;-54
2023/05/10 11:17:02;;;;;;;;;;;23.90;40.90;;;;;;5121107;27;20379;-55
2023/05/10 11:19:28;;;;;;;;;;;23.80;41.20;;;;;;5104878;27;19964;-55
2023/05/10 11:22:03;;;;;;;;;;;23.90;41.20;;;;;;5128089;27;20294;-55
2023/05/10 11:24:28;;;;;;;;;;;24.00;41.00;;;;;;5122019;27;19916;-55
2023/05/10 11:26:54;;;;;;;;;;;24.20;40.90;;;;;;5112025;27;19918;-55
2023/05/10 11:29:20;;;;;;;;;;;24.00;41.00;;;;;;5129196;27;19911;-55
2023/05/10 11:31:46;;;;;;;;;;;24.00;41.30;;;;;;5128414;27;19912;-54
2023/05/10 11:34:12;;;;;;;;;;;24.00;41.10;;;;;;5126954;27;19915;-54
2023/05/10 11:36:38;;;;;;;;;;;24.20;41.00;;;;;;5124082;27;19918;-55
2023/05/10 11:39:03;;;;;;;;;;;24.30;40.60;;;;;;5126852;27;20311;-55
2023/05/10 11:41:29;;;;;;;;;;;24.30;40.70;;;;;;5108631;27;19926;-55
2023/05/10 11:43:55;;;;;;;;;;;24.20;41.00;;;;;;5124752;27;19930;-55
2023/05/10 11:46:21;;;;;;;;;;;24.10;41.00;;;;;;5127319;27;19911;-55
2023/05/10 11:48:50;;;;;;;;;;;24.30;41.10;;;;;;5125003;27;19926;-56
2023/05/10 11:51:19;;;;;;;;;;;24.50;40.80;;;;;;5127120;27;20265;-55
2023/05/10 11:53:44;;;;;;;;;;;24.50;40.60;;;;;;5123794;27;20261;-55
2023/05/10 11:56:10;;;;;;;;;;;24.60;40.60;;;;;;5119999;27;19919;-55
2023/05/10 11:58:36;;;;;;;;;;;24.50;40.70;;;;;;5121757;27;20345;-56
2023/05/10 12:01:01;;;;;;;;;;;24.30;40.90;;;;;;5119618;27;19916;-55
2023/05/10 12:03:27;;;;;;;;;;;24.30;41.10;;;;;;5124664;27;19916;-55
2023/05/10 12:05:53;;;;;;;;;;;24.50;41.00;;;;;;5131644;27;19924;-55
2023/05/10 12:08:22;;;;;;;;;;;24.60;40.70;;;;;;5119225;27;19912;-55
2023/05/10 12:10:47;;;;;;;;;;;24.70;40.70;;;;;;5125743;27;20343;-55
2023/05/10 12:13:14;;;;;;;;;;;24.70;40.90;;;;;;5120619;27;19912;-55
2023/05/10 12:15:39;;;;;;;;;;;24.50;41.10;;;;;;5118421;27;19922;-55
2023/05/10 12:18:05;;;;;;;;;;;24.40;41.30;;;;;;5126968;27;20014;-54
2023/05/10 12:20:31;;;;;;;;;;;24.40;41.40;;;;;;5126109;27;20313;-55
2023/05/10 12:22:57;;;;;;;;;;;24.50;41.20;;;;;;5110714;27;19922;-56
2023/05/10 12:25:22;;;;;;;;;;;24.60;41.20;;;;;;5128316;27;19919;-55
2023/05/10 12:27:51;;;;;;;;;;;24.70;40.90;;;;;;5121838;28;19911;-55
2023/05/10 12:30:24;;;;;;;;;;;24.70;41.10;;;;;;5108096;28;20040;-54
2023/05/10 12:32:49;;;;;;;;;;;24.50;41.30;;;;;;5117496;28;19918;-54
2023/05/10 12:35:15;;;;;;;;;;;24.50;41.30;;;;;;5109486;28;19911;-56
2023/05/10 12:37:41;;;;;;;;;;;24.50;41.50;;;;;;5131099;28;19911;-55
2023/05/10 12:40:08;;;;;;;;;;;24.50;41.50;;;;;;5125445;28;19924;-55
2023/05/10 12:42:33;;;;;;;;;;;24.60;41.20;;;;;;5088139;28;19999;-55
2023/05/10 12:44:59;;;;;;;;;;;24.60;41.30;;;;;;5129279;28;20007;-55
2023/05/10 12:47:24;;;;;;;;;;;24.50;41.30;;;;;;5124528;28;19936;-55
2023/05/10 12:49:51;;;;;;;;;;;24.50;41.50;;;;;;5121704;28;19943;-55
2023/05/10 12:52:16;;;;;;;;;;;24.40;41.70;;;;;;5125473;28;20001;-55
2023/05/10 12:54:42;;;;;;;;;;;24.40;41.80;;;;;;5110589;28;20003;-55
2023/05/10 12:57:07;;;;;;;;;;;24.40;41.90;;;;;;5120977;28;19912;-56
2023/05/10 12:59:33;;;;;;;;;;;24.40;41.90;;;;;;5128212;28;20027;-54
2023/05/10 13:01:58;;;;;;;;;;;24.40;41.90;;;;;;5126769;28;19936;-55
2023/05/10 13:04:23;;;;;;;;;;;24.40;42.00;;;;;;5125592;28;19918;-55
2023/05/10 13:06:49;;;;;;;;;;;24.40;42.00;;;;;;5109849;28;20272;-54
2023/05/10 13:09:15;;;;;;;;;;;24.40;42.00;;;;;;5128889;28;19912;-55
2023/05/10 13:11:40;;;;;;;;;;;24.40;41.90;;;;;;5121163;28;20406;-55
2023/05/10 13:14:06;;;;;;;;;;;24.50;42.00;;;;;;5097778;28;19916;-56
2023/05/10 13:16:31;;;;;;;;;;;24.50;42.00;;;;;;5113418;28;20408;-55
2023/05/10 13:18:57;;;;;;;;;;;24.40;42.00;;;;;;5129437;28;20377;-56
2023/05/10 13:21:24;;;;;;;;;;;24.50;42.10;;;;;;5117409;28;20298;-56
2023/05/10 13:23:49;;;;;;;;;;;24.50;41.90;;;;;;5116074;28;19919;-55
2023/05/10 13:26:15;;;;;;;;;;;24.50;41.90;;;;;;5126516;27;19935;-55
2023/05/10 13:28:40;;;;;;;;;;;24.50;42.10;;;;;;5124266;27;19908;-55
2023/05/10 13:31:06;;;;;;;;;;;24.40;42.20;;;;;;5133677;27;19980;-55
2023/05/10 13:33:31;;;;;;;;;;;24.50;42.30;;;;;;5133365;27;19912;-55
2023/05/10 13:35:57;;;;;;;;;;;24.50;42.20;;;;;;5118637;27;20018;-56
2023/05/10 13:38:22;;;;;;;;;;;24.60;42.10;;;;;;5126404;27;19968;-55
2023/05/10 13:40:47;;;;;;;;;;;24.50;41.90;;;;;;5126951;27;19927;-56
2023/05/10 13:43:13;;;;;;;;;;;24.50;42.10;;;;;;5132800;27;19911;-56
2023/05/10 13:45:38;;;;;;;;;;;24.50;42.20;;;;;;5130045;27;19916;-55
2023/05/10 13:48:04;;;;;;;;;;;24.50;42.30;;;;;;5125571;27;19907;-55
2023/05/10 13:50:29;;;;;;;;;;;24.50;42.30;;;;;;5131648;27;20398;-55
2023/05/10 13:52:55;;;;;;;;;;;24.50;42.20;;;;;;5121341;27;19914;-55
2023/05/10 13:55:20;;;;;;;;;;;24.60;42.20;;;;;;5131515;27;19966;-56
2023/05/10 13:57:46;;;;;;;;;;;24.60;42.20;;;;;;5122792;27;19916;-56
2023/05/10 14:00:12;;;;;;;;;;;24.60;42.30;;;;;;5125745;27;19923;-55
2023/05/10 14:02:37;;;;;;;;;;;24.40;42.50;;;;;;5132061;27;20278;-55
2023/05/10 14:05:03;;;;;;;;;;;24.40;42.60;;;;;;5126867;27;19911;-54
2023/05/10 14:07:28;;;;;;;;;;;24.40;42.60;;;;;;5121201;27;19912;-55
2023/05/10 14:09:54;;;;;;;;;;;24.50;42.40;;;;;;5107404;27;20368;-55
2023/05/10 14:12:19;;;;;;;;;;;24.50;42.50;;;;;;5104938;27;19954;-55